sensor_id;sensor_type;location;lat;lon;timestamp;temperature;humidity
36716;DHT22;22699;51.034;3.730;2023-07-13T00:00:49;17.80;99.90
36716;DHT22;22699;51.034;3.730;2023-07-13T00:03:16;17.70;99.90
36716;DHT22;22699;51.034;3.730;2023-07-13T00:05:44;17.60;99.90
36716;DHT22;22699;51.034;3.730;2023-07-13T00:08:09;17.70;99.90
36716;DHT22;22699;51.034;3.730;2023-07-13T00:10:40;17.60;99.90
36716;DHT22;22699;51.034;3.730;2023-07-13T00:13:06;17.50;99.90
36716;DHT22;22699;51.034;3.730;2023-07-13T00:15:34;17.60;99.90
36716;DHT22;22699;51.034;3.730;2023-07-13T00:18:01;17.60;99.90
36716;DHT22;22699;51.034;3.730;2023-07-13T00:20:26;17.60;99.90
36716;DHT22;22699;51.034;3.730;2023-07-13T00:22:53;17.60;99.90
36716;DHT22;22699;51.034;3.730;2023-07-13T00:25:20;17.70;99.90
36716;DHT22;22699;51.034;3.730;2023-07-13T00:27:47;17.50;99.90
36716;DHT22;22699;51.034;3.730;2023-07-13T00:30:16;17.50;99.90
36716;DHT22;22699;51.034;3.730;2023-07-13T00:32:42;17.50;99.90
36716;DHT22;22699;51.034;3.730;2023-07-13T00:35:08;17.40;99.90
36716;DHT22;22699;51.034;3.730;2023-07-13T00:37:36;17.40;99.90
36716;DHT22;22699;51.034;3.730;2023-07-13T00:40:10;17.40;99.90
36716;DHT22;22699;51.034;3.730;2023-07-13T00:42:37;17.30;99.90
36716;DHT22;22699;51.034;3.730;2023-07-13T00:47:40;17.30;99.90
36716;DHT22;22699;51.034;3.730;2023-07-13T00:50:12;17.20;99.90
36716;DHT22;22699;51.034;3.730;2023-07-13T00:55:49;17.20;99.90
36716;DHT22;22699;51.034;3.730;2023-07-13T00:58:15;17.20;99.90
36716;DHT22;22699;51.034;3.730;2023-07-13T01:00:47;17.20;99.90
36716;DHT22;22699;51.034;3.730;2023-07-13T01:03:15;17.20;99.90
36716;DHT22;22699;51.034;3.730;2023-07-13T01:05:41;17.10;99.90
36716;DHT22;22699;51.034;3.730;2023-07-13T01:08:07;17.10;99.90
36716;DHT22;22699;51.034;3.730;2023-07-13T01:10:33;17.10;99.90
36716;DHT22;22699;51.034;3.730;2023-07-13T01:13:09;17.20;99.90
36716;DHT22;22699;51.034;3.730;2023-07-13T01:15:46;17.20;99.90
36716;DHT22;22699;51.034;3.730;2023-07-13T01:18:22;17.20;99.90
36716;DHT22;22699;51.034;3.730;2023-07-13T01:23:19;17.10;99.90
36716;DHT22;22699;51.034;3.730;2023-07-13T01:25:44;17.00;99.90
36716;DHT22;22699;51.034;3.730;2023-07-13T01:28:14;17.10;99.90
36716;DHT22;22699;51.034;3.730;2023-07-13T01:30:48;17.00;99.90
36716;DHT22;22699;51.034;3.730;2023-07-13T01:33:42;17.00;99.90
36716;DHT22;22699;51.034;3.730;2023-07-13T01:36:08;17.00;99.90
36716;DHT22;22699;51.034;3.730;2023-07-13T01:38:39;16.90;99.90
36716;DHT22;22699;51.034;3.730;2023-07-13T01:41:12;16.90;99.90
36716;DHT22;22699;51.034;3.730;2023-07-13T01:44:11;16.90;99.90
36716;DHT22;22699;51.034;3.730;2023-07-13T01:46:43;16.90;99.90
36716;DHT22;22699;51.034;3.730;2023-07-13T01:49:11;16.90;99.90
36716;DHT22;22699;51.034;3.730;2023-07-13T01:51:40;16.80;99.90
36716;DHT22;22699;51.034;3.730;2023-07-13T01:54:16;16.80;99.90
36716;DHT22;22699;51.034;3.730;2023-07-13T01:56:54;16.80;99.90
36716;DHT22;22699;51.034;3.730;2023-07-13T01:59:58;16.70;99.90
36716;DHT22;22699;51.034;3.730;2023-07-13T02:02:24;16.70;99.90
36716;DHT22;22699;51.034;3.730;2023-07-13T02:04:49;16.70;99.90
36716;DHT22;22699;51.034;3.730;2023-07-13T02:07:16;16.60;99.90
36716;DHT22;22699;51.034;3.730;2023-07-13T02:09:42;16.60;99.90
36716;DHT22;22699;51.034;3.730;2023-07-13T02:12:09;16.60;99.90
36716;DHT22;22699;51.034;3.730;2023-07-13T02:14:35;16.60;99.90
36716;DHT22;22699;51.034;3.730;2023-07-13T02:17:00;16.60;99.90
36716;DHT22;22699;51.034;3.730;2023-07-13T02:19:26;16.60;99.90
36716;DHT22;22699;51.034;3.730;2023-07-13T02:21:52;16.70;99.90
36716;DHT22;22699;51.034;3.730;2023-07-13T02:24:17;16.70;99.90
36716;DHT22;22699;51.034;3.730;2023-07-13T02:26:45;16.70;99.90
36716;DHT22;22699;51.034;3.730;2023-07-13T02:29:10;16.70;99.90
36716;DHT22;22699;51.034;3.730;2023-07-13T02:31:36;16.80;99.90
36716;DHT22;22699;51.034;3.730;2023-07-13T02:34:02;16.70;99.90
36716;DHT22;22699;51.034;3.730;2023-07-13T02:36:28;16.60;99.90
36716;DHT22;22699;51.034;3.730;2023-07-13T02:38:54;16.60;99.90
36716;DHT22;22699;51.034;3.730;2023-07-13T02:41:20;16.70;99.90
36716;DHT22;22699;51.034;3.730;2023-07-13T02:43:45;16.60;99.90
36716;DHT22;22699;51.034;3.730;2023-07-13T02:46:11;16.60;99.90
36716;DHT22;22699;51.034;3.730;2023-07-13T02:48:38;16.70;99.90
36716;DHT22;22699;51.034;3.730;2023-07-13T02:51:04;16.80;99.90
36716;DHT22;22699;51.034;3.730;2023-07-13T02:53:30;16.80;99.90
36716;DHT22;22699;51.034;3.730;2023-07-13T02:55:56;16.70;99.90
36716;DHT22;22699;51.034;3.730;2023-07-13T02:58:22;16.60;99.90
36716;DHT22;22699;51.034;3.730;2023-07-13T03:00:48;16.60;99.90
36716;DHT22;22699;51.034;3.730;2023-07-13T03:03:15;16.70;99.90
36716;DHT22;22699;51.034;3.730;2023-07-13T03:05:43;16.50;99.90
36716;DHT22;22699;51.034;3.730;2023-07-13T03:08:10;16.50;99.90
36716;DHT22;22699;51.034;3.730;2023-07-13T03:10:36;16.50;99.90
36716;DHT22;22699;51.034;3.730;2023-07-13T03:13:02;16.60;99.90
36716;DHT22;22699;51.034;3.730;2023-07-13T03:15:34;16.60;99.90
36716;DHT22;22699;51.034;3.730;2023-07-13T03:18:00;16.60;99.90
36716;DHT22;22699;51.034;3.730;2023-07-13T03:20:25;16.60;99.90
36716;DHT22;22699;51.034;3.730;2023-07-13T03:22:51;16.60;99.90
36716;DHT22;22699;51.034;3.730;2023-07-13T03:25:17;16.50;99.90
36716;DHT22;22699;51.034;3.730;2023-07-13T03:27:44;16.60;99.90
36716;DHT22;22699;51.034;3.730;2023-07-13T03:30:10;16.60;99.90
36716;DHT22;22699;51.034;3.730;2023-07-13T03:32:35;16.60;99.90
36716;DHT22;22699;51.034;3.730;2023-07-13T03:35:01;16.70;99.90
36716;DHT22;22699;51.034;3.730;2023-07-13T03:37:30;16.60;99.90
36716;DHT22;22699;51.034;3.730;2023-07-13T03:39:55;16.70;99.90
36716;DHT22;22699;51.034;3.730;2023-07-13T03:42:21;16.70;99.90
36716;DHT22;22699;51.034;3.730;2023-07-13T03:44:47;16.80;99.90
36716;DHT22;22699;51.034;3.730;2023-07-13T03:47:18;16.60;99.90
36716;DHT22;22699;51.034;3.730;2023-07-13T03:49:43;16.50;99.90
36716;DHT22;22699;51.034;3.730;2023-07-13T03:52:10;16.60;99.90
36716;DHT22;22699;51.034;3.730;2023-07-13T03:54:35;16.70;99.90
36716;DHT22;22699;51.034;3.730;2023-07-13T03:57:02;16.60;99.90
36716;DHT22;22699;51.034;3.730;2023-07-13T03:59:29;16.50;99.90
36716;DHT22;22699;51.034;3.730;2023-07-13T04:01:54;16.50;99.90
36716;DHT22;22699;51.034;3.730;2023-07-13T04:04:20;16.60;99.90
36716;DHT22;22699;51.034;3.730;2023-07-13T04:06:48;16.70;99.90
36716;DHT22;22699;51.034;3.730;2023-07-13T04:09:13;16.70;99.90
36716;DHT22;22699;51.034;3.730;2023-07-13T04:11:39;16.80;99.90
36716;DHT22;22699;51.034;3.730;2023-07-13T04:14:08;16.70;99.90
36716;DHT22;22699;51.034;3.730;2023-07-13T04:16:34;16.70;99.90
36716;DHT22;22699;51.034;3.730;2023-07-13T04:19:00;16.90;99.90
36716;DHT22;22699;51.034;3.730;2023-07-13T04:21:27;17.00;99.90
36716;DHT22;22699;51.034;3.730;2023-07-13T04:23:53;17.00;99.90
36716;DHT22;22699;51.034;3.730;2023-07-13T04:26:22;16.90;99.90
36716;DHT22;22699;51.034;3.730;2023-07-13T04:28:55;16.90;99.90
36716;DHT22;22699;51.034;3.730;2023-07-13T04:31:21;16.90;99.90
36716;DHT22;22699;51.034;3.730;2023-07-13T04:33:47;16.90;99.90
36716;DHT22;22699;51.034;3.730;2023-07-13T04:36:15;17.00;99.90
36716;DHT22;22699;51.034;3.730;2023-07-13T04:38:41;17.00;99.90
36716;DHT22;22699;51.034;3.730;2023-07-13T04:41:14;17.10;99.90
36716;DHT22;22699;51.034;3.730;2023-07-13T04:43:43;17.10;99.90
36716;DHT22;22699;51.034;3.730;2023-07-13T04:46:16;17.00;99.90
36716;DHT22;22699;51.034;3.730;2023-07-13T04:48:54;17.00;99.90
36716;DHT22;22699;51.034;3.730;2023-07-13T04:51:20;17.00;99.90
36716;DHT22;22699;51.034;3.730;2023-07-13T04:53:46;16.90;99.90
36716;DHT22;22699;51.034;3.730;2023-07-13T04:56:12;17.10;99.90
36716;DHT22;22699;51.034;3.730;2023-07-13T04:58:37;17.20;99.90
36716;DHT22;22699;51.034;3.730;2023-07-13T05:01:06;17.30;99.90
36716;DHT22;22699;51.034;3.730;2023-07-13T05:03:32;17.20;99.90
36716;DHT22;22699;51.034;3.730;2023-07-13T05:06:03;17.30;99.90
36716;DHT22;22699;51.034;3.730;2023-07-13T05:08:28;17.30;99.90
36716;DHT22;22699;51.034;3.730;2023-07-13T05:10:54;17.40;99.90
36716;DHT22;22699;51.034;3.730;2023-07-13T05:13:20;17.30;99.90
36716;DHT22;22699;51.034;3.730;2023-07-13T05:15:57;17.40;99.90
36716;DHT22;22699;51.034;3.730;2023-07-13T05:18:23;17.40;99.90
36716;DHT22;22699;51.034;3.730;2023-07-13T05:21:05;17.40;99.90
36716;DHT22;22699;51.034;3.730;2023-07-13T05:23:32;17.50;99.90
36716;DHT22;22699;51.034;3.730;2023-07-13T05:25:58;17.50;99.90
36716;DHT22;22699;51.034;3.730;2023-07-13T05:28:25;17.50;99.90
36716;DHT22;22699;51.034;3.730;2023-07-13T05:30:52;17.50;99.90
36716;DHT22;22699;51.034;3.730;2023-07-13T05:33:20;17.70;99.90
36716;DHT22;22699;51.034;3.730;2023-07-13T05:35:50;17.80;99.90
36716;DHT22;22699;51.034;3.730;2023-07-13T05:38:16;17.80;99.90
36716;DHT22;22699;51.034;3.730;2023-07-13T05:40:57;17.80;99.90
36716;DHT22;22699;51.034;3.730;2023-07-13T05:43:38;17.80;99.90
36716;DHT22;22699;51.034;3.730;2023-07-13T05:46:04;17.80;99.90
36716;DHT22;22699;51.034;3.730;2023-07-13T05:48:31;17.80;99.90
36716;DHT22;22699;51.034;3.730;2023-07-13T05:50:57;17.90;99.90
36716;DHT22;22699;51.034;3.730;2023-07-13T05:53:37;18.00;99.90
36716;DHT22;22699;51.034;3.730;2023-07-13T05:56:05;18.10;99.90
36716;DHT22;22699;51.034;3.730;2023-07-13T05:58:31;18.20;99.90
36716;DHT22;22699;51.034;3.730;2023-07-13T06:01:06;18.20;99.90
36716;DHT22;22699;51.034;3.730;2023-07-13T06:03:33;18.20;99.90
36716;DHT22;22699;51.034;3.730;2023-07-13T06:05:59;18.00;99.90
36716;DHT22;22699;51.034;3.730;2023-07-13T06:08:27;18.20;99.90
36716;DHT22;22699;51.034;3.730;2023-07-13T06:10:53;18.10;99.90
36716;DHT22;22699;51.034;3.730;2023-07-13T06:13:20;18.30;99.90
36716;DHT22;22699;51.034;3.730;2023-07-13T06:15:51;18.30;99.90
36716;DHT22;22699;51.034;3.730;2023-07-13T06:18:17;18.50;99.90
36716;DHT22;22699;51.034;3.730;2023-07-13T06:20:43;18.50;99.90
36716;DHT22;22699;51.034;3.730;2023-07-13T06:23:09;18.60;99.90
36716;DHT22;22699;51.034;3.730;2023-07-13T06:25:35;18.80;99.90
36716;DHT22;22699;51.034;3.730;2023-07-13T06:28:00;19.00;99.90
36716;DHT22;22699;51.034;3.730;2023-07-13T06:30:26;19.10;99.90
36716;DHT22;22699;51.034;3.730;2023-07-13T06:32:52;19.30;99.90
36716;DHT22;22699;51.034;3.730;2023-07-13T06:35:18;19.30;99.90
36716;DHT22;22699;51.034;3.730;2023-07-13T06:37:46;19.30;99.90
36716;DHT22;22699;51.034;3.730;2023-07-13T06:40:13;19.40;99.90
36716;DHT22;22699;51.034;3.730;2023-07-13T06:42:38;19.60;99.90
36716;DHT22;22699;51.034;3.730;2023-07-13T06:45:04;19.50;99.90
36716;DHT22;22699;51.034;3.730;2023-07-13T06:47:30;19.40;99.90
36716;DHT22;22699;51.034;3.730;2023-07-13T06:49:56;19.50;99.90
36716;DHT22;22699;51.034;3.730;2023-07-13T06:52:21;19.60;99.90
36716;DHT22;22699;51.034;3.730;2023-07-13T06:54:48;19.50;99.90
36716;DHT22;22699;51.034;3.730;2023-07-13T06:57:13;19.30;99.90
36716;DHT22;22699;51.034;3.730;2023-07-13T06:59:39;19.30;99.90
36716;DHT22;22699;51.034;3.730;2023-07-13T07:02:07;19.40;99.90
36716;DHT22;22699;51.034;3.730;2023-07-13T07:04:34;19.60;99.90
36716;DHT22;22699;51.034;3.730;2023-07-13T07:06:59;19.90;99.90
36716;DHT22;22699;51.034;3.730;2023-07-13T07:09:25;19.80;99.90
36716;DHT22;22699;51.034;3.730;2023-07-13T07:11:51;19.80;99.90
36716;DHT22;22699;51.034;3.730;2023-07-13T07:14:18;19.70;99.90
36716;DHT22;22699;51.034;3.730;2023-07-13T07:16:43;20.00;99.90
36716;DHT22;22699;51.034;3.730;2023-07-13T07:19:09;20.30;99.90
36716;DHT22;22699;51.034;3.730;2023-07-13T07:21:35;20.70;99.90
36716;DHT22;22699;51.034;3.730;2023-07-13T07:24:00;21.00;99.90
36716;DHT22;22699;51.034;3.730;2023-07-13T07:26:26;21.60;99.90
36716;DHT22;22699;51.034;3.730;2023-07-13T07:28:52;22.60;98.20
36716;DHT22;22699;51.034;3.730;2023-07-13T07:31:17;24.40;94.60
36716;DHT22;22699;51.034;3.730;2023-07-13T07:33:43;25.50;90.60
36716;DHT22;22699;51.034;3.730;2023-07-13T07:36:11;24.80;88.40
36716;DHT22;22699;51.034;3.730;2023-07-13T07:38:39;26.00;86.80
36716;DHT22;22699;51.034;3.730;2023-07-13T07:41:05;27.90;78.70
36716;DHT22;22699;51.034;3.730;2023-07-13T07:43:31;29.00;73.90
36716;DHT22;22699;51.034;3.730;2023-07-13T07:45:58;28.80;72.70
36716;DHT22;22699;51.034;3.730;2023-07-13T07:48:23;29.80;70.30
36716;DHT22;22699;51.034;3.730;2023-07-13T07:50:49;29.20;68.00
36716;DHT22;22699;51.034;3.730;2023-07-13T07:53:14;29.90;66.80
36716;DHT22;22699;51.034;3.730;2023-07-13T07:55:40;30.90;63.80
36716;DHT22;22699;51.034;3.730;2023-07-13T07:58:06;30.90;63.00
36716;DHT22;22699;51.034;3.730;2023-07-13T08:00:32;30.30;63.70
36716;DHT22;22699;51.034;3.730;2023-07-13T08:02:59;29.40;64.20
36716;DHT22;22699;51.034;3.730;2023-07-13T08:05:25;29.30;64.70
36716;DHT22;22699;51.034;3.730;2023-07-13T08:07:52;29.50;65.30
36716;DHT22;22699;51.034;3.730;2023-07-13T08:10:18;29.00;65.90
36716;DHT22;22699;51.034;3.730;2023-07-13T08:12:44;28.40;66.80
36716;DHT22;22699;51.034;3.730;2023-07-13T08:15:14;28.00;68.30
36716;DHT22;22699;51.034;3.730;2023-07-13T08:17:40;29.10;65.90
36716;DHT22;22699;51.034;3.730;2023-07-13T08:20:06;28.30;67.00
36716;DHT22;22699;51.034;3.730;2023-07-13T08:22:32;29.00;65.90
36716;DHT22;22699;51.034;3.730;2023-07-13T08:24:59;29.60;64.70
36716;DHT22;22699;51.034;3.730;2023-07-13T08:27:26;28.70;65.30
36716;DHT22;22699;51.034;3.730;2023-07-13T08:29:53;28.60;67.30
36716;DHT22;22699;51.034;3.730;2023-07-13T08:32:20;30.50;63.60
36716;DHT22;22699;51.034;3.730;2023-07-13T08:34:47;30.50;61.40
36716;DHT22;22699;51.034;3.730;2023-07-13T08:37:13;28.90;64.90
36716;DHT22;22699;51.034;3.730;2023-07-13T08:39:38;27.70;67.70
36716;DHT22;22699;51.034;3.730;2023-07-13T08:42:31;27.70;67.40
36716;DHT22;22699;51.034;3.730;2023-07-13T08:45:07;26.70;69.80
36716;DHT22;22699;51.034;3.730;2023-07-13T08:47:40;26.20;70.90
36716;DHT22;22699;51.034;3.730;2023-07-13T08:50:15;26.10;71.70
36716;DHT22;22699;51.034;3.730;2023-07-13T08:52:43;27.40;68.40
36716;DHT22;22699;51.034;3.730;2023-07-13T08:55:18;29.20;65.30
36716;DHT22;22699;51.034;3.730;2023-07-13T08:57:50;30.00;60.40
36716;DHT22;22699;51.034;3.730;2023-07-13T09:00:18;30.90;59.60
36716;DHT22;22699;51.034;3.730;2023-07-13T09:02:56;31.30;58.60
36716;DHT22;22699;51.034;3.730;2023-07-13T09:05:29;31.10;57.60
36716;DHT22;22699;51.034;3.730;2023-07-13T09:16:43;35.40;50.00
36716;DHT22;22699;51.034;3.730;2023-07-13T09:19:16;33.60;51.10
36716;DHT22;22699;51.034;3.730;2023-07-13T09:21:45;31.80;54.50
36716;DHT22;22699;51.034;3.730;2023-07-13T09:26:45;33.40;52.60
36716;DHT22;22699;51.034;3.730;2023-07-13T09:29:21;33.80;51.80
36716;DHT22;22699;51.034;3.730;2023-07-13T09:31:54;33.80;51.30
36716;DHT22;22699;51.034;3.730;2023-07-13T09:34:20;34.80;50.90
36716;DHT22;22699;51.034;3.730;2023-07-13T09:36:46;34.30;50.60
36716;DHT22;22699;51.034;3.730;2023-07-13T09:39:20;32.30;53.00
36716;DHT22;22699;51.034;3.730;2023-07-13T09:42:20;34.10;51.70
36716;DHT22;22699;51.034;3.730;2023-07-13T09:45:05;34.70;50.80
36716;DHT22;22699;51.034;3.730;2023-07-13T09:47:39;34.00;51.50
36716;DHT22;22699;51.034;3.730;2023-07-13T09:50:15;33.50;51.30
36716;DHT22;22699;51.034;3.730;2023-07-13T09:52:48;32.70;52.30
36716;DHT22;22699;51.034;3.730;2023-07-13T09:55:36;33.80;51.40
36716;DHT22;22699;51.034;3.730;2023-07-13T09:58:18;34.30;51.50
36716;DHT22;22699;51.034;3.730;2023-07-13T10:00:58;34.00;51.70
36716;DHT22;22699;51.034;3.730;2023-07-13T10:03:29;34.80;49.70
36716;DHT22;22699;51.034;3.730;2023-07-13T10:06:03;35.00;49.80
36716;DHT22;22699;51.034;3.730;2023-07-13T10:08:30;33.10;51.00
36716;DHT22;22699;51.034;3.730;2023-07-13T10:11:00;32.30;52.40
36716;DHT22;22699;51.034;3.730;2023-07-13T10:13:32;32.40;52.80
36716;DHT22;22699;51.034;3.730;2023-07-13T10:16:00;31.60;53.80
36716;DHT22;22699;51.034;3.730;2023-07-13T10:18:28;31.40;54.50
36716;DHT22;22699;51.034;3.730;2023-07-13T10:21:13;30.10;55.50
36716;DHT22;22699;51.034;3.730;2023-07-13T10:23:43;29.10;57.00
36716;DHT22;22699;51.034;3.730;2023-07-13T10:26:15;28.00;58.80
36716;DHT22;22699;51.034;3.730;2023-07-13T10:28:42;27.10;60.70
36716;DHT22;22699;51.034;3.730;2023-07-13T10:31:14;27.10;60.60
36716;DHT22;22699;51.034;3.730;2023-07-13T10:33:40;26.70;61.70
36716;DHT22;22699;51.034;3.730;2023-07-13T10:36:15;26.10;62.60
36716;DHT22;22699;51.034;3.730;2023-07-13T10:38:44;25.80;63.80
36716;DHT22;22699;51.034;3.730;2023-07-13T10:41:15;25.40;64.60
36716;DHT22;22699;51.034;3.730;2023-07-13T10:43:49;25.30;64.60
36716;DHT22;22699;51.034;3.730;2023-07-13T10:46:24;25.70;64.10
36716;DHT22;22699;51.034;3.730;2023-07-13T10:48:59;26.10;63.20
36716;DHT22;22699;51.034;3.730;2023-07-13T10:51:27;26.00;63.10
36716;DHT22;22699;51.034;3.730;2023-07-13T10:54:22;26.10;63.50
36716;DHT22;22699;51.034;3.730;2023-07-13T10:57:20;25.70;73.20
36716;DHT22;22699;51.034;3.730;2023-07-13T11:00:14;24.90;77.70
36716;DHT22;22699;51.034;3.730;2023-07-13T11:02:43;24.20;80.60
36716;DHT22;22699;51.034;3.730;2023-07-13T11:05:37;23.80;85.30
36716;DHT22;22699;51.034;3.730;2023-07-13T11:10:57;23.00;89.10
36716;DHT22;22699;51.034;3.730;2023-07-13T11:21:31;22.50;95.60
36716;DHT22;22699;51.034;3.730;2023-07-13T11:24:17;22.30;95.80
36716;DHT22;22699;51.034;3.730;2023-07-13T11:32:00;22.80;94.90
36716;DHT22;22699;51.034;3.730;2023-07-13T11:34:34;23.10;95.30
36716;DHT22;22699;51.034;3.730;2023-07-13T11:37:01;23.60;94.40
36716;DHT22;22699;51.034;3.730;2023-07-13T11:39:36;24.10;94.80
36716;DHT22;22699;51.034;3.730;2023-07-13T11:42:07;24.80;92.70
36716;DHT22;22699;51.034;3.730;2023-07-13T11:44:35;25.20;92.00
36716;DHT22;22699;51.034;3.730;2023-07-13T11:47:09;25.70;88.80
36716;DHT22;22699;51.034;3.730;2023-07-13T11:49:43;25.40;87.40
36716;DHT22;22699;51.034;3.730;2023-07-13T11:52:17;25.40;87.10
36716;DHT22;22699;51.034;3.730;2023-07-13T11:54:49;25.40;89.90
36716;DHT22;22699;51.034;3.730;2023-07-13T11:57:23;25.20;88.30
36716;DHT22;22699;51.034;3.730;2023-07-13T11:59:52;24.60;89.70
36716;DHT22;22699;51.034;3.730;2023-07-13T12:02:32;24.50;89.30
36716;DHT22;22699;51.034;3.730;2023-07-13T12:05:00;24.30;90.40
36716;DHT22;22699;51.034;3.730;2023-07-13T12:07:31;24.20;90.30
36716;DHT22;22699;51.034;3.730;2023-07-13T12:10:03;24.50;90.20
36716;DHT22;22699;51.034;3.730;2023-07-13T12:12:37;24.70;90.20
36716;DHT22;22699;51.034;3.730;2023-07-13T12:15:10;25.30;89.90
36716;DHT22;22699;51.034;3.730;2023-07-13T12:17:37;25.50;87.60
36716;DHT22;22699;51.034;3.730;2023-07-13T12:20:18;25.40;87.00
36716;DHT22;22699;51.034;3.730;2023-07-13T12:22:49;25.30;85.80
36716;DHT22;22699;51.034;3.730;2023-07-13T12:25:16;25.30;84.90
36716;DHT22;22699;51.034;3.730;2023-07-13T12:27:47;24.90;85.70
36716;DHT22;22699;51.034;3.730;2023-07-13T12:30:32;25.30;85.80
36716;DHT22;22699;51.034;3.730;2023-07-13T12:33:06;25.40;85.10
36716;DHT22;22699;51.034;3.730;2023-07-13T12:35:42;25.80;84.20
36716;DHT22;22699;51.034;3.730;2023-07-13T12:38:11;26.30;83.00
36716;DHT22;22699;51.034;3.730;2023-07-13T12:40:37;26.30;80.70
36716;DHT22;22699;51.034;3.730;2023-07-13T12:43:04;26.70;79.50
36716;DHT22;22699;51.034;3.730;2023-07-13T12:45:34;27.00;76.20
36716;DHT22;22699;51.034;3.730;2023-07-13T12:48:14;27.20;76.40
36716;DHT22;22699;51.034;3.730;2023-07-13T12:50:42;27.20;74.50
36716;DHT22;22699;51.034;3.730;2023-07-13T12:53:31;27.20;75.00
36716;DHT22;22699;51.034;3.730;2023-07-13T12:56:02;27.00;74.10
36716;DHT22;22699;51.034;3.730;2023-07-13T12:58:32;26.80;74.80
36716;DHT22;22699;51.034;3.730;2023-07-13T13:01:02;26.50;74.90
36716;DHT22;22699;51.034;3.730;2023-07-13T13:06:20;26.10;75.60
36716;DHT22;22699;51.034;3.730;2023-07-13T13:08:49;25.50;76.10
36716;DHT22;22699;51.034;3.730;2023-07-13T13:11:16;25.30;77.20
36716;DHT22;22699;51.034;3.730;2023-07-13T13:13:45;25.40;76.80
36716;DHT22;22699;51.034;3.730;2023-07-13T13:18:49;25.30;76.00
36716;DHT22;22699;51.034;3.730;2023-07-13T13:21:16;25.30;75.30
36716;DHT22;22699;51.034;3.730;2023-07-13T13:23:42;25.30;74.50
36716;DHT22;22699;51.034;3.730;2023-07-13T13:26:14;25.60;73.70
36716;DHT22;22699;51.034;3.730;2023-07-13T13:28:43;25.80;72.50
36716;DHT22;22699;51.034;3.730;2023-07-13T13:31:10;26.10;69.00
36716;DHT22;22699;51.034;3.730;2023-07-13T13:33:42;26.30;67.40
36716;DHT22;22699;51.034;3.730;2023-07-13T13:36:19;26.50;66.40
36716;DHT22;22699;51.034;3.730;2023-07-13T13:38:46;26.60;66.40
36716;DHT22;22699;51.034;3.730;2023-07-13T13:41:14;26.60;66.20
36716;DHT22;22699;51.034;3.730;2023-07-13T13:43:42;26.80;66.40
36716;DHT22;22699;51.034;3.730;2023-07-13T13:46:15;27.00;64.60
36716;DHT22;22699;51.034;3.730;2023-07-13T13:48:41;27.30;64.00
36716;DHT22;22699;51.034;3.730;2023-07-13T13:51:20;27.30;63.90
36716;DHT22;22699;51.034;3.730;2023-07-13T13:53:47;27.40;63.20
36716;DHT22;22699;51.034;3.730;2023-07-13T13:56:17;27.10;63.60
36716;DHT22;22699;51.034;3.730;2023-07-13T13:58:49;27.10;63.10
36716;DHT22;22699;51.034;3.730;2023-07-13T14:01:20;26.90;64.10
36716;DHT22;22699;51.034;3.730;2023-07-13T14:03:49;26.80;63.00
36716;DHT22;22699;51.034;3.730;2023-07-13T14:06:17;26.80;63.00
36716;DHT22;22699;51.034;3.730;2023-07-13T14:08:43;26.50;63.50
36716;DHT22;22699;51.034;3.730;2023-07-13T14:11:16;26.50;63.60
36716;DHT22;22699;51.034;3.730;2023-07-13T14:13:45;26.40;63.60
36716;DHT22;22699;51.034;3.730;2023-07-13T14:16:15;26.60;63.80
36716;DHT22;22699;51.034;3.730;2023-07-13T14:18:43;26.30;64.50
36716;DHT22;22699;51.034;3.730;2023-07-13T14:21:18;26.00;64.80
36716;DHT22;22699;51.034;3.730;2023-07-13T14:23:45;25.60;65.80
36716;DHT22;22699;51.034;3.730;2023-07-13T14:26:15;25.70;64.70
36716;DHT22;22699;51.034;3.730;2023-07-13T14:28:44;25.50;65.80
36716;DHT22;22699;51.034;3.730;2023-07-13T14:31:15;25.40;65.70
36716;DHT22;22699;51.034;3.730;2023-07-13T14:33:41;25.60;64.90
36716;DHT22;22699;51.034;3.730;2023-07-13T14:36:42;25.90;64.70
36716;DHT22;22699;51.034;3.730;2023-07-13T14:39:15;25.80;65.10
36716;DHT22;22699;51.034;3.730;2023-07-13T14:41:43;25.90;65.00
36716;DHT22;22699;51.034;3.730;2023-07-13T14:44:21;25.90;64.60
36716;DHT22;22699;51.034;3.730;2023-07-13T14:46:50;26.00;63.90
36716;DHT22;22699;51.034;3.730;2023-07-13T14:52:16;25.90;64.10
36716;DHT22;22699;51.034;3.730;2023-07-13T14:54:42;25.80;64.50
36716;DHT22;22699;51.034;3.730;2023-07-13T14:57:27;25.80;63.20
36716;DHT22;22699;51.034;3.730;2023-07-13T14:59:52;26.00;62.90
36716;DHT22;22699;51.034;3.730;2023-07-13T15:02:31;26.10;63.00
36716;DHT22;22699;51.034;3.730;2023-07-13T15:04:57;25.90;62.20
36716;DHT22;22699;51.034;3.730;2023-07-13T15:07:24;26.00;61.80
36716;DHT22;22699;51.034;3.730;2023-07-13T15:09:50;26.10;62.40
36716;DHT22;22699;51.034;3.730;2023-07-13T15:12:17;25.90;63.20
36716;DHT22;22699;51.034;3.730;2023-07-13T15:14:42;25.70;63.20
36716;DHT22;22699;51.034;3.730;2023-07-13T15:17:25;25.50;64.20
36716;DHT22;22699;51.034;3.730;2023-07-13T15:20:11;25.80;64.20
36716;DHT22;22699;51.034;3.730;2023-07-13T15:22:40;26.00;63.70
36716;DHT22;22699;51.034;3.730;2023-07-13T15:25:22;26.20;63.50
36716;DHT22;22699;51.034;3.730;2023-07-13T15:27:48;26.50;62.00
36716;DHT22;22699;51.034;3.730;2023-07-13T15:30:17;26.80;60.60
36716;DHT22;22699;51.034;3.730;2023-07-13T15:32:47;26.50;60.50
36716;DHT22;22699;51.034;3.730;2023-07-13T15:35:17;26.70;60.50
36716;DHT22;22699;51.034;3.730;2023-07-13T15:37:44;26.90;59.80
36716;DHT22;22699;51.034;3.730;2023-07-13T15:40:13;26.70;59.30
36716;DHT22;22699;51.034;3.730;2023-07-13T15:42:43;26.50;60.00
36716;DHT22;22699;51.034;3.730;2023-07-13T15:45:21;26.10;60.70
36716;DHT22;22699;51.034;3.730;2023-07-13T15:47:48;25.90;60.90
36716;DHT22;22699;51.034;3.730;2023-07-13T15:50:19;25.70;60.60
36716;DHT22;22699;51.034;3.730;2023-07-13T15:52:50;25.90;60.40
36716;DHT22;22699;51.034;3.730;2023-07-13T15:55:17;25.70;60.70
36716;DHT22;22699;51.034;3.730;2023-07-13T15:57:47;25.50;61.30
36716;DHT22;22699;51.034;3.730;2023-07-13T16:00:25;25.60;60.80
36716;DHT22;22699;51.034;3.730;2023-07-13T16:02:51;25.80;61.20
36716;DHT22;22699;51.034;3.730;2023-07-13T16:05:19;25.70;61.20
36716;DHT22;22699;51.034;3.730;2023-07-13T16:07:52;26.00;61.10
36716;DHT22;22699;51.034;3.730;2023-07-13T16:10:35;26.10;60.90
36716;DHT22;22699;51.034;3.730;2023-07-13T16:13:07;26.20;60.40
36716;DHT22;22699;51.034;3.730;2023-07-13T16:15:36;26.40;59.90
36716;DHT22;22699;51.034;3.730;2023-07-13T16:18:04;26.20;60.50
36716;DHT22;22699;51.034;3.730;2023-07-13T16:20:32;25.90;60.90
36716;DHT22;22699;51.034;3.730;2023-07-13T16:22:58;25.50;61.70
36716;DHT22;22699;51.034;3.730;2023-07-13T16:25:27;25.50;62.40
36716;DHT22;22699;51.034;3.730;2023-07-13T16:27:57;25.60;61.20
36716;DHT22;22699;51.034;3.730;2023-07-13T16:30:30;25.70;61.00